createdAt,value
2023-02-06T00:00:01.294Z,99.99
2023-02-06T00:01:01.267Z,99.99
2023-02-06T00:02:01.285Z,99.99
2023-02-06T00:03:01.234Z,99.99
2023-02-06T00:04:01.242Z,99.99
2023-02-06T00:05:01.212Z,99.99
2023-02-06T00:06:01.431Z,99.99
2023-02-06T00:07:01.224Z,99.99
2023-02-06T00:08:01.186Z,99.99
2023-02-06T00:09:01.244Z,99.99
2023-02-06T00:10:01.470Z,99.99
2023-02-06T00:11:01.296Z,99.99
2023-02-06T00:12:08.704Z,99.99
2023-02-06T00:13:01.162Z,99.99
2023-02-06T00:14:01.152Z,99.99
2023-02-06T00:15:01.112Z,99.99
2023-02-06T00:16:01.157Z,99.99
2023-02-06T00:17:01.127Z,99.99
2023-02-06T00:18:01.079Z,99.99
2023-02-06T00:19:01.121Z,99.99
2023-02-06T00:20:01.064Z,99.99
2023-02-06T00:21:01.035Z,99.99
2023-02-06T00:22:01.039Z,99.99
2023-02-06T00:23:01.047Z,99.99
2023-02-06T00:24:01.043Z,99.99
2023-02-06T00:25:01.030Z,99.99
2023-02-06T00:26:00.971Z,99.99
2023-02-06T00:27:00.975Z,99.99
2023-02-06T00:28:01.007Z,99.99
2023-02-06T00:29:00.943Z,99.99
2023-02-06T00:30:00.975Z,99.99
2023-02-06T00:31:01.068Z,99.99
2023-02-06T00:32:00.920Z,99.99
2023-02-06T00:33:00.902Z,99.99
2023-02-06T00:34:00.907Z,99.99
2023-02-06T00:35:00.861Z,99.99
2023-02-06T00:36:00.864Z,99.99
2023-02-06T00:37:00.856Z,99.99
2023-02-06T00:38:00.825Z,99.99
2023-02-06T00:39:00.837Z,99.99
2023-02-06T00:40:00.811Z,99.99
2023-02-06T00:41:00.797Z,99.99
2023-02-06T00:42:00.779Z,99.99
2023-02-06T00:43:00.768Z,99.99
2023-02-06T00:44:00.789Z,99.99
2023-02-06T00:45:00.735Z,99.99
2023-02-06T00:46:00.756Z,99.99
2023-02-06T00:47:00.736Z,99.99
2023-02-06T00:48:00.717Z,99.99
2023-02-06T00:49:00.732Z,99.99
2023-02-06T00:50:00.670Z,99.99
2023-02-06T00:51:00.681Z,99.99
2023-02-06T00:52:00.704Z,99.99
2023-02-06T00:53:00.649Z,99.99
2023-02-06T00:54:00.680Z,99.99
2023-02-06T00:55:00.623Z,99.99
2023-02-06T00:56:00.642Z,99.99
2023-02-06T00:57:00.594Z,99.99
2023-02-06T00:58:00.588Z,99.99
2023-02-06T00:59:00.594Z,99.99
2023-02-06T01:00:00.590Z,99.99
2023-02-06T01:01:00.554Z,99.99
2023-02-06T01:02:00.627Z,99.99
2023-02-06T01:03:00.547Z,99.99
2023-02-06T01:04:00.525Z,99.99
2023-02-06T01:05:00.529Z,99.99
2023-02-06T01:06:00.512Z,99.99
2023-02-06T01:07:00.458Z,99.99
2023-02-06T01:08:01.145Z,99.99
2023-02-06T01:09:00.440Z,99.99
2023-02-06T01:10:00.441Z,99.99
2023-02-06T01:11:00.453Z,99.99
2023-02-06T01:12:00.382Z,99.99
2023-02-06T01:13:00.434Z,99.99
2023-02-06T01:14:00.390Z,99.99
2023-02-06T01:15:00.379Z,99.99
2023-02-06T01:16:00.336Z,99.99
2023-02-06T01:17:00.333Z,99.99
2023-02-06T01:18:00.300Z,99.99
2023-02-06T01:19:00.370Z,99.99
2023-02-06T01:20:00.285Z,99.99
2023-02-06T01:21:00.277Z,99.99
2023-02-06T01:22:00.308Z,99.99
2023-02-06T01:23:00.282Z,99.99
2023-02-06T01:24:00.256Z,99.99
2023-02-06T01:25:00.259Z,99.99
2023-02-06T01:26:00.247Z,99.99
2023-02-06T01:27:00.185Z,99.99
2023-02-06T01:28:00.217Z,99.99
2023-02-06T01:29:00.242Z,99.99
2023-02-06T01:30:00.236Z,99.99
2023-02-06T01:31:00.322Z,99.99
2023-02-06T01:32:00.136Z,99.99
2023-02-06T01:33:00.130Z,99.99
2023-02-06T01:34:00.184Z,99.99
2023-02-06T01:35:00.153Z,99.99
2023-02-06T01:36:00.112Z,99.99
2023-02-06T01:37:00.097Z,99.99
2023-02-06T01:38:00.110Z,99.99
2023-02-06T01:39:00.144Z,99.99
2023-02-06T01:40:00.064Z,99.99
2023-02-06T01:41:00.033Z,99.99
2023-02-06T01:42:00.050Z,99.99
2023-02-06T01:43:00.023Z,99.99
2023-02-06T01:44:00.089Z,99.99
2023-02-06T01:45:00.010Z,99.99
2023-02-06T01:45:59.976Z,99.99
2023-02-06T01:46:59.960Z,99.99
2023-02-06T01:47:59.973Z,99.99
2023-02-06T01:48:59.940Z,99.99
2023-02-06T01:49:59.962Z,99.99
2023-02-06T01:50:59.880Z,99.99
2023-02-06T01:51:59.910Z,99.99
2023-02-06T01:52:59.861Z,99.99
2023-02-06T01:53:59.889Z,99.99
2023-02-06T01:54:59.849Z,99.99
2023-02-06T01:55:59.902Z,99.99
2023-02-06T01:56:59.817Z,99.99
2023-02-06T01:57:59.808Z,99.99
2023-02-06T01:58:59.811Z,99.99
2023-02-06T01:59:59.825Z,99.99
2023-02-06T02:00:59.836Z,99.99
2023-02-06T02:01:59.849Z,99.99
2023-02-06T02:02:59.718Z,99.99
2023-02-06T02:03:59.748Z,99.99
2023-02-06T02:04:59.717Z,99.99
2023-02-06T02:05:59.717Z,99.99
2023-02-06T02:06:59.688Z,99.99
2023-02-06T02:07:59.680Z,99.99
2023-02-06T02:08:59.673Z,99.99
2023-02-06T02:09:59.686Z,99.99
2023-02-06T02:10:59.666Z,99.99
2023-02-06T02:11:59.626Z,99.99
2023-02-06T02:12:59.628Z,99.99
2023-02-06T02:13:59.609Z,99.99
2023-02-06T02:14:59.602Z,99.99
2023-02-06T02:15:59.652Z,99.99
2023-02-06T02:16:59.585Z,99.99
2023-02-06T02:17:59.603Z,99.99
2023-02-06T02:18:59.600Z,99.99
2023-02-06T02:19:59.540Z,99.99
2023-02-06T02:20:59.536Z,99.99
2023-02-06T02:21:59.497Z,99.99
2023-02-06T02:22:59.536Z,99.99
2023-02-06T02:23:59.565Z,99.99
2023-02-06T02:24:59.499Z,99.99
2023-02-06T02:25:59.471Z,99.99
2023-02-06T02:26:59.474Z,99.99
2023-02-06T02:27:59.580Z,99.99
2023-02-06T02:28:59.485Z,99.99
2023-02-06T02:29:59.429Z,99.99
2023-02-06T02:30:59.471Z,99.99
2023-02-06T02:31:59.430Z,99.99
2023-02-06T02:32:59.434Z,99.99
2023-02-06T02:33:59.390Z,99.99
2023-02-06T02:34:59.418Z,99.99
2023-02-06T02:35:59.341Z,99.99
2023-02-06T02:36:59.337Z,99.99
2023-02-06T02:37:59.291Z,99.99
2023-02-06T02:38:59.310Z,99.99
2023-02-06T02:39:59.287Z,99.99
2023-02-06T02:40:59.281Z,99.99
2023-02-06T02:41:59.243Z,99.99
2023-02-06T02:42:59.228Z,99.99
2023-02-06T02:43:59.236Z,99.99
2023-02-06T02:44:59.208Z,99.99
2023-02-06T02:45:59.267Z,99.99
2023-02-06T02:46:59.161Z,99.99
2023-02-06T02:47:59.152Z,99.99
2023-02-06T02:48:59.209Z,99.99
2023-02-06T02:49:59.138Z,99.99
2023-02-06T02:50:59.142Z,99.99
2023-02-06T02:51:59.108Z,99.99
2023-02-06T02:52:59.088Z,99.99
2023-02-06T02:53:59.112Z,99.99
2023-02-06T02:54:59.079Z,99.99
2023-02-06T02:55:59.051Z,99.99
2023-02-06T02:56:59.033Z,99.99
2023-02-06T02:57:59.030Z,99.99
2023-02-06T02:58:59.030Z,99.99
2023-02-06T02:59:59.033Z,99.99
2023-02-06T03:00:59.017Z,99.99
2023-02-06T03:01:59.054Z,99.99
2023-02-06T03:02:58.976Z,99.99
2023-02-06T03:03:58.949Z,99.99
2023-02-06T03:04:58.983Z,99.99
2023-02-06T03:05:58.957Z,99.99
2023-02-06T03:06:58.918Z,99.99
2023-02-06T03:07:58.912Z,99.99
2023-02-06T03:08:58.884Z,99.99
2023-02-06T03:09:58.924Z,99.99
2023-02-06T03:10:58.911Z,99.99
2023-02-06T03:11:58.865Z,99.99
2023-02-06T03:12:58.853Z,99.99
2023-02-06T03:13:59.000Z,99.99
2023-02-06T03:14:58.945Z,99.99
2023-02-06T03:15:58.845Z,99.99
2023-02-06T03:16:58.857Z,99.99
2023-02-06T03:17:58.800Z,99.99
2023-02-06T03:18:58.772Z,99.99
2023-02-06T03:19:58.798Z,99.99
2023-02-06T03:20:58.769Z,99.99
2023-02-06T03:21:58.816Z,99.99
2023-02-06T03:22:58.792Z,99.99
2023-02-06T03:23:58.782Z,99.99
2023-02-06T03:24:58.840Z,99.99
2023-02-06T03:25:58.701Z,99.99
2023-02-06T03:26:58.675Z,99.99
2023-02-06T03:27:58.672Z,99.99
2023-02-06T03:28:58.626Z,99.99
2023-02-06T03:29:58.856Z,99.99
2023-02-06T03:30:58.773Z,99.99
2023-02-06T03:31:58.707Z,99.99
2023-02-06T03:32:58.673Z,99.99
2023-02-06T03:33:58.576Z,99.99
2023-02-06T03:34:58.648Z,99.99
2023-02-06T03:35:59.380Z,99.99
2023-02-06T03:36:58.561Z,99.99
2023-02-06T03:37:58.536Z,99.99
2023-02-06T03:38:58.494Z,99.99
2023-02-06T03:39:58.539Z,99.99
2023-02-06T03:40:58.537Z,99.99
2023-02-06T03:41:58.492Z,99.99
2023-02-06T03:42:58.459Z,99.99
2023-02-06T03:43:58.449Z,99.99
2023-02-06T03:44:58.443Z,99.99
2023-02-06T03:45:58.584Z,99.99
2023-02-06T03:46:58.441Z,99.99
2023-02-06T03:47:58.440Z,99.99
2023-02-06T03:48:58.522Z,99.99
2023-02-06T03:49:58.433Z,99.99
2023-02-06T03:50:58.393Z,99.99
2023-02-06T03:51:58.379Z,99.99
2023-02-06T03:52:58.412Z,99.99
2023-02-06T03:53:58.427Z,99.99
2023-02-06T03:54:58.358Z,99.99
2023-02-06T03:55:58.374Z,99.99
2023-02-06T03:56:58.408Z,99.99
2023-02-06T03:57:58.309Z,99.99
2023-02-06T03:58:58.296Z,99.99
2023-02-06T03:59:58.273Z,99.99
2023-02-06T04:00:58.265Z,99.99
2023-02-06T04:01:58.396Z,99.99
2023-02-06T04:02:58.340Z,99.99
2023-02-06T04:03:58.191Z,99.99
2023-02-06T04:04:58.221Z,99.99
2023-02-06T04:05:58.147Z,99.99
2023-02-06T04:06:58.162Z,99.99
2023-02-06T04:07:58.128Z,99.99
2023-02-06T04:08:58.120Z,99.99
2023-02-06T04:09:58.134Z,99.99
2023-02-06T04:10:58.112Z,99.99
2023-02-06T04:11:58.087Z,99.99
2023-02-06T04:12:58.096Z,99.99
2023-02-06T04:13:58.060Z,99.99
2023-02-06T04:14:58.076Z,99.99
2023-02-06T04:15:58.058Z,99.99
2023-02-06T04:16:58.022Z,99.99
2023-02-06T04:18:01.124Z,99.99
2023-02-06T04:18:58.012Z,99.99
2023-02-06T04:19:57.976Z,99.99
2023-02-06T04:20:57.957Z,99.99
2023-02-06T04:21:57.939Z,99.99
2023-02-06T04:22:57.956Z,99.99
2023-02-06T04:23:57.936Z,99.99
2023-02-06T04:24:57.945Z,99.99
2023-02-06T04:25:57.892Z,99.99
2023-02-06T04:26:57.902Z,99.99
2023-02-06T04:27:57.908Z,99.99
2023-02-06T04:28:57.933Z,99.99
2023-02-06T04:29:57.892Z,99.99
2023-02-06T04:30:58.005Z,99.99
2023-02-06T04:31:57.826Z,99.99
2023-02-06T04:32:57.824Z,99.99
2023-02-06T04:33:57.864Z,99.99
2023-02-06T04:34:57.828Z,99.99
2023-02-06T04:35:57.773Z,99.99
2023-02-06T04:36:57.774Z,99.99
2023-02-06T04:37:57.743Z,99.99
2023-02-06T04:38:57.774Z,99.99
2023-02-06T04:39:57.758Z,99.99
2023-02-06T04:40:57.706Z,99.99
2023-02-06T04:41:57.709Z,99.99
2023-02-06T04:42:57.709Z,99.99
2023-02-06T04:43:57.664Z,99.99
2023-02-06T04:44:57.686Z,99.99
2023-02-06T04:45:57.677Z,99.99
2023-02-06T04:46:57.629Z,99.99
2023-02-06T04:47:59.462Z,99.99
2023-02-06T04:48:57.611Z,99.99
2023-02-06T04:49:57.600Z,99.99
2023-02-06T04:50:57.591Z,99.99
2023-02-06T04:51:57.590Z,99.99
2023-02-06T04:52:57.571Z,99.99
2023-02-06T04:53:57.534Z,99.99
2023-02-06T04:54:57.565Z,99.99
2023-02-06T04:55:57.531Z,99.99
2023-02-06T04:56:57.499Z,99.99
2023-02-06T04:57:57.481Z,99.99
2023-02-06T04:58:57.490Z,99.99
2023-02-06T04:59:57.501Z,99.99
2023-02-06T05:00:57.470Z,99.99
2023-02-06T05:01:57.458Z,99.99
2023-02-06T05:02:57.450Z,99.99
2023-02-06T05:03:57.425Z,99.99
2023-02-06T05:04:57.436Z,99.99
2023-02-06T05:05:57.384Z,99.99
2023-02-06T05:06:57.398Z,99.99
2023-02-06T05:07:57.365Z,99.99
2023-02-06T05:08:57.357Z,99.99
2023-02-06T05:09:57.352Z,99.99
2023-02-06T05:10:57.331Z,99.99
2023-02-06T05:11:57.310Z,99.99
2023-02-06T05:12:57.300Z,99.99
2023-02-06T05:13:57.282Z,99.99
2023-02-06T05:14:57.283Z,99.99
2023-02-06T05:15:57.307Z,99.99
2023-02-06T05:16:57.248Z,99.99
2023-02-06T05:17:57.254Z,99.99
2023-02-06T05:18:57.240Z,99.99
2023-02-06T05:19:58.402Z,99.99
2023-02-06T05:20:57.192Z,99.99
2023-02-06T05:21:57.219Z,99.99
2023-02-06T05:22:57.169Z,99.99
2023-02-06T05:23:57.159Z,99.99
2023-02-06T05:24:57.167Z,99.99
2023-02-06T05:25:57.129Z,99.99
2023-02-06T05:26:57.178Z,99.99
2023-02-06T05:27:57.114Z,99.99
2023-02-06T05:28:57.111Z,99.99
2023-02-06T05:29:57.094Z,99.99
2023-02-06T05:30:57.152Z,99.99
2023-02-06T05:31:57.796Z,99.99
2023-02-06T05:32:57.046Z,99.99
2023-02-06T05:33:57.014Z,99.99
2023-02-06T05:34:57.217Z,99.99
2023-02-06T05:35:57.015Z,99.99
2023-02-06T05:36:57.013Z,99.99
2023-02-06T05:37:57.113Z,99.99
2023-02-06T05:38:57.027Z,99.99
2023-02-06T05:39:58.563Z,99.99
2023-02-06T05:40:56.939Z,99.99
2023-02-06T05:41:56.927Z,99.99
2023-02-06T05:42:56.927Z,99.99
2023-02-06T05:43:56.898Z,99.99
2023-02-06T05:44:56.913Z,99.99
2023-02-06T05:45:56.958Z,99.99
2023-02-06T05:46:56.910Z,99.99
2023-02-06T05:47:56.904Z,99.99
2023-02-06T05:48:56.866Z,99.99
2023-02-06T05:49:56.884Z,99.99
2023-02-06T05:50:56.896Z,99.99
2023-02-06T05:51:56.834Z,99.99
2023-02-06T05:52:56.797Z,99.99
2023-02-06T05:53:56.894Z,99.99
2023-02-06T05:54:56.793Z,99.99
2023-02-06T05:55:56.814Z,99.99
2023-02-06T05:56:56.749Z,99.99
2023-02-06T05:57:57.011Z,99.99
2023-02-06T05:58:56.823Z,99.99
2023-02-06T05:59:56.769Z,99.99
2023-02-06T06:00:56.767Z,99.99
2023-02-06T06:01:56.672Z,99.99
2023-02-06T06:02:56.665Z,99.99
2023-02-06T06:03:56.735Z,99.99
2023-02-06T06:04:56.735Z,99.99
2023-02-06T06:05:56.624Z,99.99
2023-02-06T06:06:56.624Z,99.99
2023-02-06T06:07:56.584Z,99.99
2023-02-06T06:08:56.603Z,99.99
2023-02-06T06:09:56.615Z,99.99
2023-02-06T06:10:56.571Z,99.99
2023-02-06T06:11:56.550Z,99.99
2023-02-06T06:12:56.552Z,99.99
2023-02-06T06:13:56.531Z,99.99
2023-02-06T06:14:56.805Z,99.99
2023-02-06T06:15:56.539Z,99.99
2023-02-06T06:16:56.506Z,99.99
2023-02-06T06:17:56.484Z,99.99
2023-02-06T06:18:56.451Z,99.99
2023-02-06T06:19:56.454Z,99.99
2023-02-06T06:20:56.444Z,99.99
2023-02-06T06:21:58.262Z,99.99
2023-02-06T06:22:56.426Z,99.99
2023-02-06T06:23:56.408Z,99.99
2023-02-06T06:24:56.407Z,99.99
2023-02-06T06:25:56.383Z,99.99
2023-02-06T06:26:56.414Z,99.99
2023-02-06T06:27:56.373Z,99.99
2023-02-06T06:28:56.375Z,99.99
2023-02-06T06:29:56.503Z,99.99
2023-02-06T06:30:56.377Z,99.99
2023-02-06T06:31:56.376Z,99.99
2023-02-06T06:32:56.302Z,99.99
2023-02-06T06:33:56.346Z,99.99
2023-02-06T06:34:56.347Z,99.99
2023-02-06T06:35:56.286Z,99.99
2023-02-06T06:36:56.417Z,99.99
2023-02-06T06:37:56.296Z,99.99
2023-02-06T06:38:56.240Z,99.99
2023-02-06T06:39:56.195Z,99.99
2023-02-06T06:40:56.215Z,99.99
2023-02-06T06:41:56.244Z,99.99
2023-02-06T06:42:56.185Z,99.99
2023-02-06T06:43:56.156Z,99.99
2023-02-06T06:44:56.184Z,99.99
2023-02-06T06:45:56.293Z,99.99
2023-02-06T06:46:56.108Z,99.99
2023-02-06T06:47:56.098Z,99.99
2023-02-06T06:48:56.095Z,99.99
2023-02-06T06:49:56.114Z,99.99
2023-02-06T06:50:56.045Z,99.99
2023-02-06T06:51:56.052Z,99.99
2023-02-06T06:52:56.030Z,99.99
2023-02-06T06:53:56.027Z,99.99
2023-02-06T06:54:56.047Z,99.99
2023-02-06T06:55:56.021Z,99.99
2023-02-06T06:56:55.982Z,99.99
2023-02-06T06:57:55.960Z,99.99
2023-02-06T06:58:55.995Z,99.99
2023-02-06T06:59:55.971Z,99.99
2023-02-06T07:00:56.000Z,99.99
2023-02-06T07:01:55.910Z,99.99
2023-02-06T07:02:55.952Z,99.99
2023-02-06T07:03:55.884Z,99.99
2023-02-06T07:04:55.884Z,99.99
2023-02-06T07:05:55.896Z,99.99
2023-02-06T07:06:55.860Z,99.99
2023-02-06T07:07:55.856Z,99.99
2023-02-06T07:08:55.825Z,99.99
2023-02-06T07:09:55.817Z,99.99
2023-02-06T07:10:55.838Z,99.99
2023-02-06T07:11:55.811Z,99.99
2023-02-06T07:12:55.787Z,99.99
2023-02-06T07:13:55.779Z,99.99
2023-02-06T07:14:55.760Z,99.99
2023-02-06T07:15:55.793Z,99.99
2023-02-06T07:16:55.729Z,99.99
2023-02-06T07:17:55.724Z,99.99
2023-02-06T07:18:55.718Z,99.99
2023-02-06T07:19:55.720Z,99.99
2023-02-06T07:20:55.708Z,99.99
2023-02-06T07:21:55.712Z,99.99
2023-02-06T07:22:56.055Z,99.99
2023-02-06T07:23:55.638Z,99.99
2023-02-06T07:24:55.695Z,99.99
2023-02-06T07:25:55.666Z,99.99
2023-02-06T07:26:55.694Z,99.99
2023-02-06T07:27:55.704Z,99.99
2023-02-06T07:28:55.629Z,99.99
2023-02-06T07:29:55.696Z,99.99
2023-02-06T07:30:55.684Z,99.99
2023-02-06T07:31:55.703Z,99.99
2023-02-06T07:32:55.580Z,99.99
2023-02-06T07:33:55.603Z,99.99
2023-02-06T07:34:55.525Z,99.99
2023-02-06T07:35:55.646Z,99.99
2023-02-06T07:36:55.572Z,99.99
2023-02-06T07:37:55.543Z,99.99
2023-02-06T07:38:55.488Z,99.99
2023-02-06T07:39:55.541Z,99.99
2023-02-06T07:40:55.551Z,99.99
2023-02-06T07:41:55.495Z,99.99
2023-02-06T07:42:55.496Z,99.99
2023-02-06T07:43:55.416Z,99.99
2023-02-06T07:44:55.466Z,99.99
2023-02-06T07:45:55.448Z,99.99
2023-02-06T07:46:55.453Z,99.99
2023-02-06T07:47:55.375Z,99.99
2023-02-06T07:48:55.449Z,99.99
2023-02-06T07:49:55.341Z,99.99
2023-02-06T07:50:55.392Z,99.99
2023-02-06T07:51:55.357Z,99.99
2023-02-06T07:52:55.392Z,99.99
2023-02-06T07:53:55.340Z,99.99
2023-02-06T07:54:55.329Z,99.99
2023-02-06T07:55:55.385Z,99.99
2023-02-06T07:56:55.254Z,99.99
2023-02-06T07:57:55.305Z,99.99
2023-02-06T07:58:55.278Z,99.99
2023-02-06T07:59:55.270Z,99.99
2023-02-06T08:00:55.317Z,99.99
2023-02-06T08:01:55.228Z,99.99
2023-02-06T08:02:55.202Z,99.99
2023-02-06T08:03:55.188Z,99.99
2023-02-06T08:04:55.190Z,99.99
2023-02-06T08:05:55.141Z,99.99
2023-02-06T08:06:55.154Z,99.99
2023-02-06T08:07:55.150Z,99.99
2023-02-06T08:08:55.224Z,99.99
2023-02-06T08:09:55.086Z,99.99
2023-02-06T08:10:55.210Z,99.99
2023-02-06T08:11:55.065Z,99.99
2023-02-06T08:12:55.075Z,99.99
2023-02-06T08:13:55.110Z,99.99
2023-02-06T08:14:55.026Z,99.99
2023-02-06T08:15:55.072Z,99.99
2023-02-06T08:16:55.090Z,99.99
2023-02-06T08:17:55.033Z,99.99
2023-02-06T08:18:55.022Z,99.99
2023-02-06T08:19:54.967Z,99.99
2023-02-06T08:20:54.998Z,99.99
2023-02-06T08:21:54.944Z,99.99
2023-02-06T08:22:54.936Z,99.99
2023-02-06T08:23:54.939Z,99.99
2023-02-06T08:24:54.905Z,99.99
2023-02-06T08:25:54.950Z,99.99
2023-02-06T08:26:54.864Z,99.99
2023-02-06T08:27:54.946Z,99.99
2023-02-06T08:28:54.869Z,99.99
2023-02-06T08:29:54.834Z,99.99
2023-02-06T08:30:54.958Z,99.99
2023-02-06T08:31:54.857Z,99.99
2023-02-06T08:32:54.793Z,99.99
2023-02-06T08:33:54.873Z,99.99
2023-02-06T08:34:54.850Z,99.99
2023-02-06T08:35:54.930Z,99.99
2023-02-06T08:36:54.784Z,99.99
2023-02-06T08:37:54.782Z,99.99
2023-02-06T08:38:54.726Z,99.99
2023-02-06T08:39:54.788Z,99.99
2023-02-06T08:40:54.700Z,99.99
2023-02-06T08:41:54.778Z,99.99
2023-02-06T08:42:54.677Z,99.99
2023-02-06T08:43:54.673Z,99.99
2023-02-06T08:44:54.646Z,99.99
2023-02-06T08:45:54.736Z,99.99
2023-02-06T08:47:08.880Z,99.99
2023-02-06T08:47:55.718Z,99.99
2023-02-06T08:48:54.608Z,99.99
2023-02-06T08:49:54.599Z,99.99
2023-02-06T08:50:54.656Z,99.99
2023-02-06T08:51:54.556Z,99.99
2023-02-06T08:52:54.577Z,99.99
2023-02-06T08:53:54.610Z,99.99
2023-02-06T08:54:54.518Z,99.99
2023-02-06T08:55:54.606Z,99.99
2023-02-06T08:56:54.497Z,99.99
2023-02-06T08:57:54.495Z,99.99
2023-02-06T08:58:54.524Z,99.99
2023-02-06T08:59:54.502Z,99.99
2023-02-06T09:00:54.506Z,99.99
2023-02-06T09:01:54.495Z,99.99
2023-02-06T09:02:54.474Z,99.99
2023-02-06T09:03:54.454Z,99.99
2023-02-06T09:04:54.405Z,99.99
2023-02-06T09:05:57.592Z,99.99
2023-02-06T09:06:55.395Z,99.99
2023-02-06T09:07:54.407Z,99.99
2023-02-06T09:08:54.355Z,99.99
2023-02-06T09:09:54.335Z,99.99
2023-02-06T09:10:54.428Z,99.99
2023-02-06T09:11:54.325Z,99.99
2023-02-06T09:12:54.324Z,99.99
2023-02-06T09:13:54.369Z,99.99
2023-02-06T09:14:54.282Z,99.99
2023-02-06T09:15:54.297Z,99.99
2023-02-06T09:16:54.351Z,99.99
2023-02-06T09:17:54.232Z,99.99
2023-02-06T09:18:54.335Z,99.99
2023-02-06T09:19:54.220Z,99.99
2023-02-06T09:20:54.238Z,99.99
2023-02-06T09:21:54.244Z,99.99
2023-02-06T09:22:54.206Z,99.99
2023-02-06T09:23:54.149Z,99.99
2023-02-06T09:24:54.129Z,99.99
2023-02-06T09:25:54.182Z,99.99
2023-02-06T09:26:59.910Z,99.99
2023-02-06T09:27:56.992Z,99.99
2023-02-06T09:28:54.046Z,99.99
2023-02-06T09:29:54.107Z,99.99
2023-02-06T09:30:54.159Z,99.99
2023-02-06T09:31:54.058Z,99.99
2023-02-06T09:32:54.065Z,99.99
2023-02-06T09:33:54.111Z,99.99
2023-02-06T09:34:54.029Z,99.99
2023-02-06T09:35:54.078Z,99.99
2023-02-06T09:36:54.011Z,99.99
2023-02-06T09:37:53.960Z,99.99
2023-02-06T09:38:54.013Z,99.99
2023-02-06T09:39:53.941Z,99.99
2023-02-06T09:40:53.961Z,99.99
2023-02-06T09:41:53.987Z,99.99
2023-02-06T09:42:53.945Z,99.99
2023-02-06T09:43:53.912Z,99.99
2023-02-06T09:44:53.889Z,99.99
2023-02-06T09:45:53.877Z,99.99
2023-02-06T09:46:53.837Z,99.99
2023-02-06T09:47:53.867Z,99.60
2023-02-06T09:48:53.846Z,99.91
2023-02-06T09:49:53.825Z,99.99
2023-02-06T09:50:53.835Z,99.81
2023-02-06T09:51:53.826Z,99.60
2023-02-06T09:52:53.754Z,99.50
2023-02-06T09:53:53.821Z,99.60
2023-02-06T09:54:53.774Z,99.81
2023-02-06T09:55:53.791Z,99.91
2023-02-06T09:56:53.762Z,99.99
2023-02-06T09:57:53.781Z,99.81
2023-02-06T09:58:53.685Z,99.99
2023-02-06T09:59:53.726Z,99.71
2023-02-06T10:00:53.681Z,99.18
2023-02-06T10:01:53.740Z,99.08
2023-02-06T10:02:53.637Z,99.08
2023-02-06T10:04:02.277Z,99.50
2023-02-06T10:04:53.620Z,99.81
2023-02-06T10:05:53.629Z,99.60
2023-02-06T10:06:53.651Z,99.29
2023-02-06T10:07:53.581Z,99.29
2023-02-06T10:08:53.570Z,99.71
2023-02-06T10:09:53.585Z,99.91
2023-02-06T10:10:53.532Z,99.71
2023-02-06T10:11:53.529Z,99.60
2023-02-06T10:12:53.544Z,99.18
2023-02-06T10:13:53.571Z,99.08
2023-02-06T10:14:53.511Z,99.40
2023-02-06T10:15:53.479Z,99.50
2023-02-06T10:16:53.514Z,99.71
2023-02-06T10:17:53.582Z,99.71
2023-02-06T10:18:53.460Z,99.71
2023-02-06T10:19:53.478Z,99.60
2023-02-06T10:20:53.424Z,99.40
2023-02-06T10:21:53.438Z,99.50
2023-02-06T10:22:53.398Z,99.60
2023-02-06T10:23:53.446Z,99.60
2023-02-06T10:24:53.384Z,99.18
2023-02-06T10:25:53.395Z,99.13
2023-02-06T10:26:53.346Z,99.54
2023-02-06T10:27:53.328Z,99.60
2023-02-06T10:28:53.389Z,99.71
2023-02-06T10:29:53.326Z,99.71
2023-02-06T10:30:53.343Z,99.60
2023-02-06T10:31:53.279Z,98.97
2023-02-06T10:32:53.327Z,99.08
2023-02-06T10:33:53.258Z,99.40
2023-02-06T10:34:53.217Z,99.08
2023-02-06T10:35:53.294Z,98.35
2023-02-06T10:36:53.262Z,98.46
2023-02-06T10:37:53.228Z,98.72
2023-02-06T10:38:53.236Z,99.45
2023-02-06T10:39:53.226Z,98.93
2023-02-06T10:40:53.229Z,98.72
2023-02-06T10:41:53.229Z,98.10
2023-02-06T10:42:53.197Z,97.37
2023-02-06T10:43:53.112Z,97.16
2023-02-06T10:44:53.146Z,97.06
2023-02-06T10:45:53.134Z,97.06
2023-02-06T10:46:53.140Z,96.95
2023-02-06T10:47:53.048Z,96.70
2023-02-06T10:48:54.410Z,96.80
2023-02-06T10:49:53.054Z,96.70
2023-02-06T10:50:53.047Z,96.18
2023-02-06T10:51:53.046Z,95.87
2023-02-06T10:52:53.030Z,95.35
2023-02-06T10:53:52.990Z,94.93
2023-02-06T10:54:52.998Z,95.03
2023-02-06T10:55:53.323Z,95.14
2023-02-06T10:56:52.967Z,95.56
2023-02-06T10:57:52.968Z,96.14
2023-02-06T10:58:53.007Z,95.83
2023-02-06T10:59:53.976Z,94.37
2023-02-06T11:00:52.986Z,94.37
2023-02-06T11:01:53.021Z,93.95
2023-02-06T11:03:05.414Z,93.74
2023-02-06T11:03:53.879Z,94.06
2023-02-06T11:04:52.831Z,93.64
2023-02-06T11:05:52.876Z,93.23
2023-02-06T11:06:52.869Z,93.29
2023-02-06T11:07:52.836Z,93.80
2023-02-06T11:08:52.772Z,93.80
2023-02-06T11:09:52.785Z,93.80
2023-02-06T11:10:52.803Z,93.18
2023-02-06T11:11:52.801Z,92.66
2023-02-06T11:12:52.766Z,92.24
2023-02-06T11:13:52.753Z,92.55
2023-02-06T11:14:52.686Z,92.45
2023-02-06T11:15:52.693Z,91.77
2023-02-06T11:16:52.669Z,91.87
2023-02-06T11:17:52.696Z,92.49
2023-02-06T11:18:52.770Z,92.91
2023-02-06T11:19:52.674Z,92.60
2023-02-06T11:20:55.482Z,92.45
2023-02-06T11:21:52.649Z,92.76
2023-02-06T11:22:53.768Z,91.93
2023-02-06T11:23:52.582Z,92.14
2023-02-06T11:24:52.619Z,91.89
2023-02-06T11:25:52.587Z,91.06
2023-02-06T11:26:52.629Z,90.95
2023-02-06T11:27:52.653Z,90.23
2023-02-06T11:28:52.554Z,90.39
2023-02-06T11:29:52.531Z,89.56
2023-02-06T11:30:52.554Z,88.84
2023-02-06T11:31:52.620Z,88.23
2023-02-06T11:33:03.641Z,86.85
2023-02-06T11:33:53.508Z,87.01
2023-02-06T11:34:52.513Z,85.97
2023-02-06T11:35:52.533Z,85.29
2023-02-06T11:36:52.420Z,85.50
2023-02-06T11:37:52.557Z,85.71
2023-02-06T11:38:52.387Z,85.64
2023-02-06T11:39:52.395Z,85.85
2023-02-06T11:40:52.382Z,86.47
2023-02-06T11:41:52.386Z,86.47
2023-02-06T11:42:52.366Z,85.95
2023-02-06T11:43:52.339Z,85.29
2023-02-06T11:44:52.387Z,84.77
2023-02-06T11:45:52.407Z,84.73
2023-02-06T11:46:52.326Z,85.71
2023-02-06T11:47:52.353Z,84.77
2023-02-06T11:48:52.288Z,85.60
2023-02-06T11:49:52.247Z,85.12
2023-02-06T11:50:52.237Z,85.47
2023-02-06T11:51:52.266Z,86.24
2023-02-06T11:52:52.276Z,87.07
2023-02-06T11:53:52.217Z,86.65
2023-02-06T11:54:52.195Z,87.27
2023-02-06T11:55:52.287Z,87.59
2023-02-06T11:56:52.214Z,86.44
2023-02-06T11:57:52.204Z,86.76
2023-02-06T11:58:52.178Z,86.34
2023-02-06T11:59:52.118Z,86.44
2023-02-06T12:00:52.182Z,86.34
2023-02-06T12:01:52.161Z,87.17
2023-02-06T12:02:52.146Z,87.17
2023-02-06T12:03:52.071Z,86.55
2023-02-06T12:04:52.116Z,85.72
2023-02-06T12:05:52.107Z,87.24
2023-02-06T12:06:52.116Z,85.47
2023-02-06T12:07:52.140Z,85.16
2023-02-06T12:08:52.043Z,85.36
2023-02-06T12:09:52.029Z,85.30
2023-02-06T12:10:52.022Z,86.55
2023-02-06T12:11:52.056Z,86.65
2023-02-06T12:12:52.064Z,86.55
2023-02-06T12:13:51.973Z,87.55
2023-02-06T12:14:51.954Z,85.88
2023-02-06T12:15:52.259Z,85.88
2023-02-06T12:16:51.948Z,86.30
2023-02-06T12:17:51.971Z,85.68
2023-02-06T12:18:51.934Z,85.36
2023-02-06T12:19:51.921Z,85.05
2023-02-06T12:20:51.898Z,85.30
2023-02-06T12:21:51.943Z,85.41
2023-02-06T12:22:51.861Z,85.82
2023-02-06T12:23:51.803Z,85.82
2023-02-06T12:24:51.800Z,86.30
2023-02-06T12:25:51.792Z,85.51
2023-02-06T12:26:51.813Z,85.93
2023-02-06T12:27:51.829Z,85.88
2023-02-06T12:28:51.769Z,86.09
2023-02-06T12:29:51.803Z,85.57
2023-02-06T12:30:51.815Z,85.47
2023-02-06T12:31:51.864Z,85.47
2023-02-06T12:32:51.796Z,85.05
2023-02-06T12:33:54.018Z,85.16
2023-02-06T12:34:51.686Z,85.16
2023-02-06T12:35:51.634Z,84.95
2023-02-06T12:36:51.782Z,84.99
2023-02-06T12:37:51.709Z,85.41
2023-02-06T12:38:51.684Z,84.89
2023-02-06T12:39:51.625Z,85.10
2023-02-06T12:40:51.553Z,84.68
2023-02-06T12:41:51.581Z,84.78
2023-02-06T12:42:51.604Z,84.53
2023-02-06T12:43:51.595Z,85.68
2023-02-06T12:44:51.527Z,85.36
2023-02-06T12:45:51.604Z,85.74
2023-02-06T12:46:51.633Z,85.64
2023-02-06T12:47:51.518Z,84.39
2023-02-06T12:48:51.469Z,84.88
2023-02-06T12:49:51.480Z,84.77
2023-02-06T12:50:51.463Z,84.56
2023-02-06T12:51:51.440Z,84.98